北海道METAR電文


稚内(RJCW)
07/14 18:00
METAR RJCW 140900Z 32007KT 9999 FEW015 BKN025 19/15 Q1015 RMK 1ST015
5CU025 A2999=

利尻(RJER)
07/14 16:00
RJER 140700Z 25008KT 9999 FEW020 BKN035 20/15 Q1015 RMK A2998=

紋別(RJEB)
07/14 16:00
METAR RJEB 140700Z 05003KT 010V100 9999 FEW004 BKN006 BKN008 16/16
Q1016 RMK 1ST004 5ST006 7ST008 A3001=

女満別(RJCM)
07/14 20:00
METAR RJCM 141100Z 06003KT 9999 FEW005 BKN020 BKN050 16/15 Q1017 RMK
1ST005 5CU020 6CU050 A3004=

中標津(RJCN)
07/14 18:00
METAR RJCN 140900Z 04005KT 340V060 9999 FEW010 BKN015 18/15 Q1016
RMK 1ST010 7ST015 A3003=

釧路(RJCK)
07/15 01:00
METAR RJCK 141600Z AUTO 03004KT 1900 R35/P2000N BR OVC001 17/17
Q1016 RMK A3003=

十勝(RJCT)
07/15 01:00
METAR RJCT 141600Z NIL=

帯広(RJCB)
07/14 20:43
RJCB 141143Z 06004KT 020V100 4900 BR FEW004 BKN005 BKN006
18/18 Q1017 RMK 1ST004 5ST005 7ST006 A3004=

旭川M(RJCA)
07/15 01:00
METAR RJCA 141600Z NIL=

旭川C(RJEC)
07/15 01:00
METAR RJEC 141600Z AUTO 15003KT 9999 NSC 18/16 Q1016 RMK A3000=

丘珠(RJCO)
07/15 01:00
METAR RJCO 141600Z NIL=

新千歳(RJCC)
07/15 01:30
METAR RJCC 141630Z 00000KT 9999 R19R/P2000N R19L/1400VP2000D BCFG
FEW005 BKN/// 18/17 Q1015 RMK 1ST005 A3000=

千歳(RJCJ)
07/15 01:00
METAR RJCJ 141600Z 23003KT 9999 FEW004 BKN/// 19/19 Q1016 RMK 1ST004
A3001=

奥尻(RJEO)
07/14 14:00
RJEO 140500Z 31007KT 9999 FEW040 24/19 Q1015 RMK A2997=

函館(RJCH)
07/15 01:00
METAR RJCH 141600Z AUTO 02004KT 340V050 9999 NCD 19/16 Q1015 RMK
A2997=
Copyright(c) 2014 International Meteorological & Oceanographic Consultants Co,.Ltd. All Rights Reserved. Design by http://f-tpl.com